Time;durP1;ratioP1;P1;durP2;ratioP2;P2;SDS_P1;SDS_P2;PMS_P1;PMS_P2;Temp;Humidity;BMP_temperature;BMP_pressure;BME280_temperature;BME280_humidity;BME280_pressure;Samples;Min_cycle;Max_cycle;Signal;HPM_P1;HPM_P2
2023/07/21 00:01:08;;;;;;;3.47;3.17;;;22.00;80.70;;;;;;4929169;28;20463;-71
2023/07/21 00:03:34;;;;;;;3.90;3.50;;;21.90;80.60;;;;;;4916844;28;20454;-71
2023/07/21 00:06:02;;;;;;;3.30;3.00;;;21.90;80.70;;;;;;4914967;28;20573;-71
2023/07/21 00:08:30;;;;;;;3.50;2.90;;;21.90;80.90;;;;;;4930887;28;20630;-70
2023/07/21 00:10:59;;;;;;;4.93;2.70;;;21.90;81.00;;;;;;4928652;28;20569;-71
2023/07/21 00:13:26;;;;;;;3.57;3.23;;;21.90;81.00;;;;;;4930336;28;20462;-70
2023/07/21 00:15:52;;;;;;;3.23;2.93;;;21.90;81.10;;;;;;4912035;28;20494;-72
2023/07/21 00:18:19;;;;;;;3.90;3.27;;;21.80;81.10;;;;;;4913733;28;20490;-71
2023/07/21 00:20:45;;;;;;;3.57;3.27;;;21.80;81.20;;;;;;4929760;28;20470;-70
2023/07/21 00:23:12;;;;;;;3.57;3.13;;;21.70;80.90;;;;;;4912425;28;20471;-70
2023/07/21 00:25:39;;;;;;;5.77;3.43;;;21.60;81.60;;;;;;4914051;28;20459;-70
2023/07/21 00:28:04;;;;;;;5.60;3.17;;;21.70;81.60;;;;;;4914730;28;20491;-71
2023/07/21 00:30:30;;;;;;;4.70;3.13;;;21.70;82.00;;;;;;4930159;28;20470;-70
2023/07/21 00:32:57;;;;;;;3.07;2.77;;;21.70;81.90;;;;;;4913378;28;20438;-71
2023/07/21 00:35:23;;;;;;;3.20;3.00;;;21.60;81.90;;;;;;4912881;28;20334;-71
2023/07/21 00:37:48;;;;;;;5.50;3.40;;;21.60;81.40;;;;;;4915079;28;20471;-70
2023/07/21 00:40:20;;;;;;;3.57;3.20;;;21.60;81.10;;;;;;4913565;28;20223;-70
2023/07/21 00:42:47;;;;;;;3.10;2.90;;;21.60;81.50;;;;;;4914194;28;20230;-70
2023/07/21 00:45:14;;;;;;;3.50;3.20;;;21.60;81.60;;;;;;4914766;28;20475;-71
2023/07/21 00:47:41;;;;;;;4.97;3.37;;;21.50;81.30;;;;;;4929337;28;20315;-71
2023/07/21 00:50:08;;;;;;;4.10;3.20;;;21.50;81.50;;;;;;4929988;28;20482;-70
2023/07/21 00:52:36;;;;;;;2.90;2.60;;;21.50;81.80;;;;;;4913171;28;20479;-71
2023/07/21 00:55:01;;;;;;;3.17;2.87;;;21.50;82.00;;;;;;4914303;28;20479;-70
2023/07/21 00:57:30;;;;;;;5.10;3.17;;;21.40;82.40;;;;;;4929329;28;20466;-69
2023/07/21 00:59:57;;;;;;;4.03;3.03;;;21.30;82.60;;;;;;4928540;28;20474;-70
2023/07/21 01:02:23;;;;;;;5.63;3.37;;;21.30;82.80;;;;;;4929310;28;20479;-71
2023/07/21 01:04:49;;;;;;;6.20;3.10;;;21.30;83.00;;;;;;4929094;28;20254;-70
2023/07/21 01:07:15;;;;;;;3.43;3.13;;;21.20;83.30;;;;;;4930131;28;20227;-70
2023/07/21 01:09:43;;;;;;;3.40;3.10;;;21.10;83.30;;;;;;4913437;28;21384;-70
2023/07/21 01:12:09;;;;;;;2.87;2.67;;;21.20;83.40;;;;;;4913203;28;20925;-69
2023/07/21 01:14:37;;;;;;;3.10;2.80;;;21.20;83.30;;;;;;4928441;28;20483;-70
2023/07/21 01:17:06;;;;;;;3.30;3.00;;;21.20;83.60;;;;;;4914773;28;20467;-70
2023/07/21 01:19:34;;;;;;;3.30;3.00;;;21.20;83.00;;;;;;4911993;28;20487;-71
2023/07/21 01:22:11;;;;;;;3.53;3.13;;;21.20;83.30;;;;;;4915507;28;20467;-70
2023/07/21 01:24:50;;;;;;;3.90;3.60;;;21.20;83.20;;;;;;4911392;28;20903;-70
2023/07/21 01:27:22;;;;;;;3.33;3.03;;;21.30;82.90;;;;;;4896619;28;20475;-70
2023/07/21 01:29:50;;;;;;;3.40;2.73;;;21.30;83.10;;;;;;4915736;28;20963;-71
2023/07/21 01:32:25;;;;;;;3.60;3.30;;;21.20;82.80;;;;;;4916357;28;21188;-71
2023/07/21 01:34:52;;;;;;;2.70;2.50;;;21.10;83.60;;;;;;4917086;28;20466;-71
2023/07/21 01:37:19;;;;;;;3.00;2.63;;;21.10;83.80;;;;;;4917374;28;20475;-71
2023/07/21 01:39:47;;;;;;;3.20;2.90;;;21.20;83.70;;;;;;4916008;28;20482;-69
2023/07/21 01:42:14;;;;;;;3.70;3.40;;;21.20;83.50;;;;;;4931974;28;20490;-71
2023/07/21 01:44:39;;;;;;;3.20;3.00;;;21.20;83.60;;;;;;4917333;28;20872;-70
2023/07/21 01:47:06;;;;;;;3.37;2.87;;;21.20;83.30;;;;;;4916507;28;20478;-71
2023/07/21 01:49:32;;;;;;;3.37;3.07;;;21.20;83.50;;;;;;4932764;28;20330;-71
2023/07/21 01:51:58;;;;;;;3.30;3.07;;;21.20;83.20;;;;;;4918156;28;20482;-71
2023/07/21 01:54:33;;;;;;;4.57;3.63;;;21.10;83.90;;;;;;4920622;28;20605;-70
2023/07/21 01:57:05;;;;;;;3.40;3.10;;;21.00;84.40;;;;;;4916567;28;20244;-69
2023/07/21 01:59:31;;;;;;;3.43;2.90;;;20.90;84.70;;;;;;4932228;28;20466;-71
2023/07/21 02:01:57;;;;;;;3.40;3.17;;;20.90;85.50;;;;;;4933190;28;20472;-71
2023/07/21 02:04:24;;;;;;;3.23;3.00;;;20.80;85.70;;;;;;4916333;28;20487;-70
2023/07/21 02:06:50;;;;;;;3.60;3.37;;;20.70;86.60;;;;;;4915380;28;20471;-71
2023/07/21 02:09:16;;;;;;;3.57;3.33;;;20.60;86.20;;;;;;4917238;28;20924;-69
2023/07/21 02:11:45;;;;;;;3.33;3.03;;;20.60;86.60;;;;;;4916322;28;20479;-70
2023/07/21 02:14:46;;;;;;;3.67;3.37;;;20.60;86.60;;;;;;4916466;28;20231;-71
2023/07/21 02:17:14;;;;;;;5.07;3.27;;;20.60;87.10;;;;;;4932102;28;20511;-70
2023/07/21 02:19:39;;;;;;;3.50;3.10;;;20.50;88.10;;;;;;4931535;28;20475;-70
2023/07/21 02:22:06;;;;;;;3.40;3.10;;;20.50;88.70;;;;;;4932144;28;20571;-69
2023/07/21 02:24:32;;;;;;;4.03;2.97;;;20.50;87.90;;;;;;4899021;28;20462;-69
2023/07/21 02:26:59;;;;;;;3.30;3.10;;;20.60;87.80;;;;;;4931712;28;20466;-71
2023/07/21 02:29:28;;;;;;;2.90;2.70;;;20.70;87.80;;;;;;4931795;28;20231;-69
2023/07/21 02:31:55;;;;;;;3.43;3.23;;;20.70;87.30;;;;;;4915270;28;20486;-70
2023/07/21 02:34:20;;;;;;;4.23;3.30;;;20.70;87.30;;;;;;4915929;28;20526;-70
2023/07/21 02:36:47;;;;;;;3.53;3.27;;;20.70;88.10;;;;;;4921339;28;20300;-70
2023/07/21 02:39:13;;;;;;;3.63;3.33;;;20.70;87.80;;;;;;4915840;28;20869;-70
2023/07/21 02:41:38;;;;;;;3.53;3.27;;;20.70;88.20;;;;;;4914095;28;20699;-69
2023/07/21 02:44:04;;;;;;;4.60;4.13;;;20.70;90.00;;;;;;4916287;28;20216;-71
2023/07/21 02:46:30;;;;;;;3.43;3.13;;;20.60;89.60;;;;;;4928058;28;20274;-70
2023/07/21 02:48:56;;;;;;;3.97;3.57;;;20.70;89.10;;;;;;4929766;28;20231;-71
2023/07/21 02:51:21;;;;;;;3.40;3.10;;;20.60;89.40;;;;;;4915004;28;20227;-71
2023/07/21 02:53:48;;;;;;;3.80;3.50;;;20.70;89.60;;;;;;4931715;28;20230;-70
2023/07/21 02:56:15;;;;;;;4.10;3.80;;;20.70;90.10;;;;;;4931125;28;20598;-70
2023/07/21 02:59:02;;;;;;;4.97;3.10;;;20.70;90.00;;;;;;4932128;28;20521;-70
2023/07/21 03:01:28;;;;;;;3.20;2.90;;;20.70;90.10;;;;;;4914618;28;20467;-69
2023/07/21 03:03:55;;;;;;;3.57;3.30;;;20.60;90.20;;;;;;4930805;28;20489;-71
2023/07/21 03:06:21;;;;;;;4.00;2.90;;;20.70;90.20;;;;;;4931831;28;20481;-71
2023/07/21 03:08:48;;;;;;;3.87;3.47;;;20.70;90.20;;;;;;4915034;28;20501;-71
2023/07/21 03:11:17;;;;;;;3.93;3.57;;;20.70;90.10;;;;;;4931095;28;20551;-70
2023/07/21 03:13:56;;;;;;;3.67;3.33;;;20.70;90.10;;;;;;4915612;28;20578;-69
2023/07/21 03:16:23;;;;;;;3.50;3.20;;;20.70;90.20;;;;;;4916180;28;20470;-69
2023/07/21 03:18:53;;;;;;;4.30;3.60;;;20.60;90.50;;;;;;4921489;28;20670;-69
2023/07/21 03:21:19;;;;;;;4.53;3.10;;;20.50;90.30;;;;;;4930800;28;20467;-71
2023/07/21 03:23:47;;;;;;;3.77;3.40;;;20.50;90.00;;;;;;4914608;28;20479;-71
2023/07/21 03:26:18;;;;;;;4.77;4.27;;;20.60;90.10;;;;;;4931558;28;20475;-70
2023/07/21 03:28:43;;;;;;;2.90;2.70;;;20.70;90.10;;;;;;4929911;28;20471;-70
2023/07/21 03:31:10;;;;;;;3.10;2.90;;;20.70;90.10;;;;;;4899643;28;20223;-70
2023/07/21 03:33:42;;;;;;;4.07;3.67;;;20.70;90.30;;;;;;4904570;28;20220;-70
2023/07/21 03:36:14;;;;;;;3.50;3.20;;;20.70;90.40;;;;;;4931875;28;20565;-71
2023/07/21 03:38:41;;;;;;;3.50;3.20;;;20.60;90.60;;;;;;4914098;28;21116;-71
2023/07/21 03:41:08;;;;;;;3.50;3.13;;;20.40;90.90;;;;;;4930649;28;20354;-69
2023/07/21 03:43:37;;;;;;;3.43;3.20;;;20.30;91.50;;;;;;4915905;28;20467;-71
2023/07/21 03:46:05;;;;;;;3.50;3.20;;;20.40;91.40;;;;;;4930816;28;21020;-70
2023/07/21 03:48:37;;;;;;;3.60;3.30;;;20.40;91.00;;;;;;4929964;28;20514;-70
2023/07/21 03:51:06;;;;;;;3.80;3.27;;;20.40;90.60;;;;;;4929441;28;21043;-70
2023/07/21 03:53:39;;;;;;;3.80;3.50;;;20.50;91.10;;;;;;4915159;28;20586;-71
2023/07/21 03:56:07;;;;;;;3.50;3.20;;;20.40;91.40;;;;;;4930309;28;20490;-71
2023/07/21 03:58:34;;;;;;;4.30;3.07;;;20.40;91.30;;;;;;4929829;28;20471;-71
2023/07/21 04:00:59;;;;;;;3.60;3.30;;;20.50;91.00;;;;;;4929871;28;20236;-70
2023/07/21 04:03:26;;;;;;;3.60;3.20;;;20.60;90.90;;;;;;4915291;28;20467;-71
2023/07/21 04:05:52;;;;;;;7.03;3.70;;;20.40;90.80;;;;;;4898135;28;20570;-72
2023/07/21 04:08:18;;;;;;;3.70;3.40;;;20.30;91.20;;;;;;4915122;28;20338;-71
2023/07/21 04:10:44;;;;;;;3.20;3.00;;;20.30;91.80;;;;;;4928433;28;20224;-70
2023/07/21 04:13:10;;;;;;;3.50;3.30;;;20.30;91.80;;;;;;4913748;28;20895;-71
2023/07/21 04:15:36;;;;;;;9.33;3.30;;;20.30;91.50;;;;;;4914765;28;20240;-70
2023/07/21 04:18:02;;;;;;;3.17;2.97;;;20.40;91.40;;;;;;4918578;28;20266;-70
2023/07/21 04:20:34;;;;;;;4.47;3.10;;;20.50;91.30;;;;;;4912985;28;20474;-70
2023/07/21 04:23:00;;;;;;;4.17;3.77;;;20.50;91.30;;;;;;4914984;28;20475;-69
2023/07/21 04:25:26;;;;;;;3.83;3.37;;;20.50;90.80;;;;;;4927884;28;20543;-70
2023/07/21 04:27:54;;;;;;;3.30;3.00;;;20.60;91.10;;;;;;4913936;28;20581;-70
2023/07/21 04:30:22;;;;;;;2.83;2.63;;;20.50;91.10;;;;;;4911954;28;21890;-71
2023/07/21 04:32:47;;;;;;;3.93;3.53;;;20.50;91.40;;;;;;4919418;28;20463;-69
2023/07/21 04:35:16;;;;;;;3.27;3.03;;;20.50;91.60;;;;;;4929678;28;20999;-71
2023/07/21 04:37:43;;;;;;;3.20;3.00;;;20.50;91.60;;;;;;4914012;28;20480;-72
2023/07/21 04:40:11;;;;;;;4.93;3.63;;;20.50;91.10;;;;;;4912576;28;20475;-70
2023/07/21 04:42:39;;;;;;;5.43;3.30;;;20.50;91.50;;;;;;4930848;28;20551;-71
2023/07/21 04:45:11;;;;;;;4.00;3.60;;;20.50;91.50;;;;;;4912881;28;20476;-73
2023/07/21 04:47:40;;;;;;;2.77;2.57;;;20.40;91.70;;;;;;4929546;28;20475;-71
2023/07/21 04:50:10;;;;;;;3.90;2.97;;;20.30;92.00;;;;;;4915097;28;20529;-70
2023/07/21 04:52:37;;;;;;;3.80;3.50;;;20.30;91.80;;;;;;4929650;28;21084;-70
2023/07/21 04:55:06;;;;;;;3.03;2.83;;;20.30;92.00;;;;;;4896051;28;20443;-71
2023/07/21 04:57:32;;;;;;;2.97;2.60;;;20.30;92.00;;;;;;4913588;28;20472;-71
2023/07/21 04:59:59;;;;;;;4.00;3.60;;;20.40;92.10;;;;;;4913777;28;20467;-71
2023/07/21 05:02:28;;;;;;;4.23;3.30;;;20.30;92.10;;;;;;4927067;28;20475;-71
2023/07/21 05:04:57;;;;;;;3.10;2.80;;;20.30;91.90;;;;;;4912771;28;20459;-69
2023/07/21 05:07:23;;;;;;;3.10;2.90;;;20.30;91.10;;;;;;4912149;28;20881;-71
2023/07/21 05:09:55;;;;;;;3.63;3.33;;;20.20;91.50;;;;;;4926422;28;20480;-71
2023/07/21 05:12:22;;;;;;;3.70;3.40;;;20.20;92.00;;;;;;4911081;28;20486;-70
2023/07/21 05:15:24;;;;;;;3.60;3.30;;;20.20;92.50;;;;;;4909308;28;20487;-70
2023/07/21 05:17:58;;;;;;;3.50;3.20;;;20.10;92.60;;;;;;4913723;28;20885;-69
2023/07/21 05:20:50;;;;;;;3.60;3.00;;;20.10;92.80;;;;;;4925092;28;20899;-69
2023/07/21 05:23:31;;;;;;;3.47;3.20;;;20.00;93.00;;;;;;4910884;28;20473;-70
2023/07/21 05:26:02;;;;;;;3.53;3.23;;;20.10;92.70;;;;;;4913050;28;20497;-70
2023/07/21 05:28:35;;;;;;;5.47;3.17;;;20.10;92.50;;;;;;4891260;28;20895;-70
2023/07/21 05:31:01;;;;;;;4.70;2.90;;;20.10;92.50;;;;;;4892498;28;20566;-72
2023/07/21 05:33:37;;;;;;;3.60;3.30;;;20.00;92.70;;;;;;4925363;28;20475;-71
2023/07/21 05:36:08;;;;;;;4.20;3.80;;;20.00;92.90;;;;;;4909004;28;20483;-72
2023/07/21 05:38:37;;;;;;;3.53;3.23;;;20.10;92.90;;;;;;4912004;28;20471;-71
2023/07/21 05:41:04;;;;;;;3.40;3.10;;;20.20;93.00;;;;;;4927546;28;20475;-70
2023/07/21 05:43:32;;;;;;;6.83;3.30;;;20.20;92.90;;;;;;4928168;28;20479;-71
2023/07/21 05:45:58;;;;;;;4.17;3.77;;;20.30;92.80;;;;;;4912370;28;21074;-70
2023/07/21 05:48:27;;;;;;;3.10;2.90;;;20.30;92.80;;;;;;4926796;28;20220;-70
2023/07/21 05:50:56;;;;;;;3.43;2.80;;;20.30;92.90;;;;;;4928165;28;20479;-71
2023/07/21 05:53:21;;;;;;;3.83;2.77;;;20.20;93.20;;;;;;4900520;28;20471;-70
2023/07/21 05:55:47;;;;;;;2.83;2.50;;;20.30;92.60;;;;;;4923201;28;20235;-70
2023/07/21 05:58:22;;;;;;;3.03;2.77;;;20.30;92.60;;;;;;4888215;28;20236;-69
2023/07/21 06:00:49;;;;;;;3.37;3.07;;;20.30;93.20;;;;;;4904314;28;20478;-71
2023/07/21 06:03:15;;;;;;;2.93;2.60;;;20.20;93.40;;;;;;4902441;28;20532;-70
2023/07/21 06:05:43;;;;;;;3.53;2.90;;;20.10;94.00;;;;;;4918820;28;20463;-73
2023/07/21 06:08:21;;;;;;;3.73;3.20;;;20.10;94.00;;;;;;4907695;28;20451;-72
2023/07/21 06:11:23;;;;;;;2.90;2.70;;;20.20;93.20;;;;;;4903765;28;20554;-71
2023/07/21 06:14:08;;;;;;;3.10;2.80;;;20.20;93.60;;;;;;4905932;28;20479;-72
2023/07/21 06:16:50;;;;;;;2.97;2.70;;;20.30;92.90;;;;;;4912340;28;20474;-71
2023/07/21 06:19:17;;;;;;;3.40;3.20;;;20.40;93.80;;;;;;4925609;28;21206;-71
2023/07/21 06:21:43;;;;;;;3.87;2.90;;;20.40;93.20;;;;;;4926657;28;20466;-71
2023/07/21 06:24:08;;;;;;;3.70;3.40;;;20.30;93.20;;;;;;4902313;28;20216;-71
2023/07/21 06:26:34;;;;;;;3.40;3.10;;;20.30;93.90;;;;;;4912293;28;20958;-70
2023/07/21 06:29:03;;;;;;;3.40;3.10;;;20.30;93.70;;;;;;4909751;28;20224;-72
2023/07/21 06:31:29;;;;;;;3.93;3.53;;;20.40;93.70;;;;;;4911472;28;20596;-72
2023/07/21 06:34:15;;;;;;;3.53;3.23;;;20.40;93.70;;;;;;4922000;28;20954;-70
2023/07/21 06:36:59;;;;;;;3.60;2.80;;;20.30;94.00;;;;;;4913266;28;20545;-70
2023/07/21 06:39:52;;;;;;;4.57;3.37;;;20.40;93.70;;;;;;4910105;28;20479;-70
2023/07/21 06:42:48;;;;;;;3.27;3.07;;;20.50;93.70;;;;;;4921548;28;20470;-69
2023/07/21 06:45:39;;;;;;;4.17;3.00;;;20.50;93.30;;;;;;4904451;28;20532;-70
2023/07/21 06:48:20;;;;;;;3.43;3.10;;;20.50;93.70;;;;;;4913508;28;20580;-70
2023/07/21 06:51:02;;;;;;;2.93;2.73;;;20.50;93.70;;;;;;4913785;28;20483;-69
2023/07/21 06:53:28;;;;;;;2.93;2.73;;;20.50;93.30;;;;;;4927778;28;20538;-71
2023/07/21 06:55:54;;;;;;;3.30;3.00;;;20.50;93.10;;;;;;4930251;28;20355;-69
2023/07/21 06:58:20;;;;;;;3.30;2.97;;;20.60;93.00;;;;;;4914522;28;20258;-70
2023/07/21 07:00:46;;;;;;;3.50;2.87;;;20.60;93.00;;;;;;4928911;28;20735;-70
2023/07/21 07:03:12;;;;;;;3.70;2.93;;;20.60;93.00;;;;;;4911727;28;20234;-72
2023/07/21 07:05:41;;;;;;;3.67;3.27;;;20.60;93.10;;;;;;4928671;28;20939;-70
2023/07/21 07:08:07;;;;;;;3.00;2.80;;;20.70;92.80;;;;;;4928217;28;20232;-70
2023/07/21 07:10:33;;;;;;;2.87;2.67;;;20.70;93.10;;;;;;4928969;28;20483;-70
2023/07/21 07:12:59;;;;;;;3.00;2.80;;;20.70;93.00;;;;;;4911880;28;20235;-70
2023/07/21 07:15:25;;;;;;;3.07;2.83;;;20.80;93.00;;;;;;4928364;28;20479;-70
2023/07/21 07:17:50;;;;;;;3.00;2.80;;;20.80;93.00;;;;;;4929916;28;20223;-71
2023/07/21 07:20:17;;;;;;;2.93;2.63;;;20.80;93.10;;;;;;4929039;28;20343;-70
2023/07/21 07:22:42;;;;;;;3.27;3.07;;;20.80;93.10;;;;;;4911957;28;20471;-71
2023/07/21 07:25:09;;;;;;;2.90;2.70;;;20.80;93.10;;;;;;4912294;28;20863;-70
2023/07/21 07:27:35;;;;;;;3.27;2.97;;;20.90;93.00;;;;;;4912412;28;20227;-70
2023/07/21 07:30:01;;;;;;;3.40;3.13;;;20.90;93.00;;;;;;4913729;28;20471;-71
2023/07/21 07:32:27;;;;;;;3.43;3.13;;;21.00;92.80;;;;;;4910618;28;20478;-71
2023/07/21 07:34:58;;;;;;;3.37;3.07;;;21.00;92.60;;;;;;4931674;28;20483;-70
2023/07/21 07:37:26;;;;;;;2.90;2.70;;;21.00;92.60;;;;;;4927950;28;20257;-72
2023/07/21 07:39:52;;;;;;;5.50;3.10;;;21.00;93.00;;;;;;4910956;28;20562;-70
2023/07/21 07:42:18;;;;;;;3.23;2.93;;;21.10;92.70;;;;;;4911621;28;20983;-69
2023/07/21 07:44:43;;;;;;;4.00;3.00;;;21.10;92.50;;;;;;4930478;28;20231;-70
2023/07/21 07:47:09;;;;;;;3.07;2.77;;;21.10;92.30;;;;;;4929464;28;20295;-71
2023/07/21 07:49:35;;;;;;;3.40;3.10;;;21.10;92.20;;;;;;4915011;28;20220;-71
2023/07/21 07:52:01;;;;;;;3.10;2.90;;;21.20;92.30;;;;;;4912447;28;20277;-71
2023/07/21 07:54:27;;;;;;;3.80;3.50;;;21.20;92.20;;;;;;4913729;28;20483;-70
2023/07/21 07:56:53;;;;;;;4.83;3.47;;;21.30;92.20;;;;;;4913477;28;20239;-71
2023/07/21 07:59:18;;;;;;;3.07;2.87;;;21.30;92.40;;;;;;4930561;28;20238;-70
2023/07/21 08:01:44;;;;;;;4.43;3.03;;;21.30;92.40;;;;;;4918077;28;20231;-71
2023/07/21 08:04:10;;;;;;;3.17;2.97;;;21.40;92.40;;;;;;4900187;28;20331;-71
2023/07/21 08:06:35;;;;;;;3.60;2.93;;;21.40;92.20;;;;;;4919541;28;20467;-70
2023/07/21 08:09:02;;;;;;;5.03;3.37;;;21.40;92.10;;;;;;4919553;28;20718;-71
2023/07/21 08:11:28;;;;;;;2.87;2.63;;;21.50;92.30;;;;;;4916906;28;20259;-71
2023/07/21 08:13:54;;;;;;;3.10;2.90;;;21.50;92.10;;;;;;4918913;28;20481;-71
2023/07/21 08:16:19;;;;;;;3.77;3.47;;;21.50;91.80;;;;;;4902578;28;20235;-70
2023/07/21 08:18:45;;;;;;;3.07;2.87;;;21.50;91.70;;;;;;4906319;28;20227;-70
2023/07/21 08:21:18;;;;;;;3.13;2.83;;;21.60;91.60;;;;;;4901359;28;20760;-71
2023/07/21 08:23:44;;;;;;;3.20;2.90;;;21.60;91.30;;;;;;4921506;28;20293;-71
2023/07/21 08:26:09;;;;;;;2.47;2.27;;;21.60;91.10;;;;;;4900941;28;21218;-71
2023/07/21 08:28:35;;;;;;;3.00;2.70;;;21.60;91.30;;;;;;4922063;28;20306;-71
2023/07/21 08:31:01;;;;;;;2.80;2.60;;;21.70;90.60;;;;;;4919891;28;20246;-72
2023/07/21 08:33:29;;;;;;;2.10;1.90;;;21.70;90.00;;;;;;4901427;28;20228;-71
2023/07/21 08:35:55;;;;;;;2.47;2.27;;;21.80;90.20;;;;;;4920469;28;20864;-70
2023/07/21 08:38:20;;;;;;;2.60;2.40;;;21.80;90.10;;;;;;4914623;28;20491;-71
2023/07/21 08:40:53;;;;;;;2.37;2.17;;;21.80;89.00;;;;;;4920310;28;20310;-69
2023/07/21 08:43:19;;;;;;;2.27;2.07;;;21.80;89.00;;;;;;4913728;28;20914;-72
2023/07/21 08:45:49;;;;;;;2.80;2.30;;;21.80;87.30;;;;;;4920771;28;20479;-70
2023/07/21 08:48:17;;;;;;;2.17;2.00;;;21.90;87.20;;;;;;4900373;28;20474;-71
2023/07/21 08:50:47;;;;;;;3.63;2.10;;;21.90;88.10;;;;;;4905635;28;20498;-71
2023/07/21 08:53:13;;;;;;;3.27;2.50;;;21.90;87.70;;;;;;4897957;28;20479;-70
2023/07/21 08:55:39;;;;;;;3.10;2.40;;;21.90;89.40;;;;;;4904250;28;20561;-70
2023/07/21 08:58:06;;;;;;;4.00;2.03;;;21.90;89.30;;;;;;4918082;28;20709;-72
2023/07/21 09:00:32;;;;;;;2.87;2.60;;;21.90;88.10;;;;;;4903306;28;20483;-70
2023/07/21 09:03:03;;;;;;;3.03;2.20;;;21.90;87.70;;;;;;4901676;28;21111;-72
2023/07/21 09:05:29;;;;;;;2.23;2.00;;;22.00;88.10;;;;;;4902710;28;21205;-70
2023/07/21 09:07:55;;;;;;;2.20;2.10;;;22.00;88.00;;;;;;4903702;28;20586;-71
2023/07/21 09:10:33;;;;;;;2.70;2.50;;;22.10;88.30;;;;;;4900410;28;20485;-71
2023/07/21 09:13:00;;;;;;;3.87;2.00;;;22.10;88.80;;;;;;4900015;28;20937;-71
2023/07/21 09:15:26;;;;;;;2.43;2.20;;;22.20;89.00;;;;;;4897241;28;22812;-70
2023/07/21 09:17:52;;;;;;;2.40;2.20;;;22.20;88.30;;;;;;4904402;28;20478;-71
2023/07/21 09:20:18;;;;;;;2.83;2.33;;;22.20;88.80;;;;;;4897041;28;20751;-71
2023/07/21 09:22:49;;;;;;;2.50;2.30;;;22.30;87.70;;;;;;4902764;28;20314;-70
2023/07/21 09:25:22;;;;;;;1.97;1.87;;;22.30;87.70;;;;;;4914684;28;20219;-69
2023/07/21 09:27:56;;;;;;;3.00;2.60;;;22.40;88.60;;;;;;4902716;28;20479;-71
2023/07/21 09:30:23;;;;;;;3.10;2.43;;;22.50;89.00;;;;;;4918915;28;20482;-71
2023/07/21 09:32:53;;;;;;;3.10;2.23;;;22.50;88.10;;;;;;4922829;28;20485;-71
2023/07/21 09:35:19;;;;;;;2.50;2.30;;;22.60;89.00;;;;;;4907936;28;21298;-71
2023/07/21 09:37:50;;;;;;;4.07;2.47;;;22.50;87.60;;;;;;4923562;28;20467;-70
2023/07/21 09:40:17;;;;;;;2.70;2.50;;;22.70;89.00;;;;;;4922015;28;20219;-71
2023/07/21 09:42:43;;;;;;;6.33;3.60;;;22.80;87.30;;;;;;4905935;28;20486;-71
2023/07/21 09:45:11;;;;;;;5.77;2.80;;;22.80;88.10;;;;;;4921457;28;20475;-71
2023/07/21 09:47:43;;;;;;;5.90;2.93;;;23.10;87.30;;;;;;4908870;28;20231;-72
2023/07/21 09:50:09;;;;;;;2.43;2.23;;;23.30;86.10;;;;;;4910847;28;20494;-71
2023/07/21 09:52:39;;;;;;;2.47;2.27;;;23.40;86.00;;;;;;4910467;28;20600;-71
2023/07/21 09:55:09;;;;;;;3.97;2.60;;;23.40;85.90;;;;;;4926661;28;20494;-71
2023/07/21 09:57:46;;;;;;;3.20;2.90;;;23.40;86.40;;;;;;4902888;28;21030;-71
2023/07/21 10:00:14;;;;;;;2.90;2.70;;;23.50;87.20;;;;;;4915205;28;20517;-71
2023/07/21 10:02:48;;;;;;;2.47;2.27;;;23.60;87.20;;;;;;4926902;28;20533;-72
2023/07/21 10:05:14;;;;;;;3.10;1.97;;;23.70;86.40;;;;;;4912306;28;20471;-71
2023/07/21 10:07:47;;;;;;;2.83;2.60;;;23.80;86.50;;;;;;4928313;28;20473;-71
2023/07/21 10:10:15;;;;;;;2.90;2.60;;;23.60;86.60;;;;;;4931102;28;20581;-71
2023/07/21 10:12:52;;;;;;;3.40;2.60;;;23.70;85.80;;;;;;4930160;28;20466;-71
2023/07/21 10:15:32;;;;;;;2.60;2.40;;;23.70;85.30;;;;;;4915757;28;20482;-70
2023/07/21 10:18:01;;;;;;;2.90;2.60;;;23.80;85.10;;;;;;4917693;28;20588;-72
2023/07/21 10:20:43;;;;;;;3.30;2.60;;;23.90;84.20;;;;;;4929691;28;21775;-72
2023/07/21 10:23:11;;;;;;;2.67;2.43;;;23.90;84.60;;;;;;4910874;28;20458;-71
2023/07/21 10:25:51;;;;;;;2.63;2.40;;;24.10;84.10;;;;;;4913878;28;20470;-73
2023/07/21 10:28:30;;;;;;;2.80;2.50;;;24.20;83.60;;;;;;4928784;28;20458;-70
2023/07/21 10:31:25;;;;;;;2.70;2.50;;;24.30;83.70;;;;;;4919316;28;20941;-71
2023/07/21 10:34:02;;;;;;;3.00;2.37;;;24.40;83.80;;;;;;4928494;28;20943;-71
2023/07/21 10:36:39;;;;;;;3.00;2.20;;;24.40;82.70;;;;;;4927541;28;20835;-70
2023/07/21 10:39:10;;;;;;;2.43;2.23;;;24.30;83.90;;;;;;4909667;28;21374;-69
2023/07/21 10:41:38;;;;;;;2.13;2.03;;;24.60;82.50;;;;;;4914776;28;21208;-70
2023/07/21 10:44:09;;;;;;;2.30;2.10;;;24.80;81.60;;;;;;4913222;28;20550;-72
2023/07/21 10:46:40;;;;;;;2.60;2.40;;;24.80;82.50;;;;;;4927604;28;20509;-72
2023/07/21 10:49:09;;;;;;;3.03;2.83;;;24.50;82.70;;;;;;4926365;28;20513;-72
2023/07/21 10:51:34;;;;;;;2.80;2.60;;;24.50;83.40;;;;;;4912406;28;20487;-72
2023/07/21 10:54:00;;;;;;;2.43;2.23;;;24.40;83.60;;;;;;4911061;28;20490;-72
2023/07/21 10:56:27;;;;;;;6.83;2.70;;;24.40;83.20;;;;;;4914521;28;20954;-70
2023/07/21 10:58:53;;;;;;;3.60;2.47;;;24.40;82.60;;;;;;4914431;28;20231;-72
2023/07/21 11:01:19;;;;;;;4.83;2.37;;;24.40;83.40;;;;;;4913112;28;20471;-72
2023/07/21 11:03:46;;;;;;;3.93;2.30;;;24.50;83.00;;;;;;4928129;28;20227;-71
2023/07/21 11:06:12;;;;;;;2.30;2.20;;;24.60;82.10;;;;;;4910652;28;20471;-71
2023/07/21 11:08:38;;;;;;;2.30;2.10;;;24.60;80.90;;;;;;4914560;28;20926;-71
2023/07/21 11:11:04;;;;;;;2.60;2.40;;;24.60;81.40;;;;;;4916260;28;20590;-71
2023/07/21 11:13:30;;;;;;;2.50;2.30;;;24.60;81.60;;;;;;4915791;28;20781;-71
2023/07/21 11:15:56;;;;;;;2.97;1.90;;;24.60;81.60;;;;;;4912969;28;20464;-71
2023/07/21 11:18:22;;;;;;;2.87;2.30;;;24.50;81.50;;;;;;4928651;28;20285;-72
2023/07/21 11:20:52;;;;;;;3.80;2.10;;;24.50;81.20;;;;;;4914848;28;20309;-72
2023/07/21 11:23:20;;;;;;;3.10;1.80;;;24.60;80.50;;;;;;4915940;28;20475;-71
2023/07/21 11:26:10;;;;;;;1.77;1.67;;;24.60;75.50;;;;;;4914204;28;20474;-72
2023/07/21 11:28:38;;;;;;;3.57;1.80;;;24.50;74.50;;;;;;4926094;28;20665;-71
2023/07/21 11:31:12;;;;;;;4.80;2.07;;;24.50;73.90;;;;;;4927900;28;20470;-70
2023/07/21 11:33:48;;;;;;;1.70;1.60;;;24.50;73.60;;;;;;4911875;28;21076;-71
2023/07/21 11:36:18;;;;;;;1.57;1.47;;;24.30;73.80;;;;;;4923843;28;20490;-71
2023/07/21 11:39:04;;;;;;;2.07;1.90;;;24.30;74.00;;;;;;4910028;28;20478;-71
2023/07/21 11:41:39;;;;;;;2.17;1.40;;;24.30;74.80;;;;;;4926748;28;20481;-72
2023/07/21 11:44:17;;;;;;;2.63;1.77;;;24.40;76.60;;;;;;4923680;28;20498;-71
2023/07/21 11:46:53;;;;;;;2.10;1.90;;;24.40;77.20;;;;;;4925993;28;20458;-70
2023/07/21 11:49:19;;;;;;;2.90;2.27;;;24.30;76.80;;;;;;4911182;28;20467;-72
2023/07/21 11:51:49;;;;;;;4.47;1.83;;;24.30;77.40;;;;;;4896764;28;20482;-71
2023/07/21 11:54:26;;;;;;;2.07;1.87;;;24.30;77.60;;;;;;4890936;28;20462;-71
2023/07/21 11:56:53;;;;;;;1.67;1.57;;;24.30;75.90;;;;;;4922982;28;20563;-70
2023/07/21 11:59:20;;;;;;;1.50;1.40;;;24.20;75.10;;;;;;4924834;28;21151;-71
2023/07/21 12:01:46;;;;;;;3.60;1.50;;;24.20;75.80;;;;;;4910351;28;20541;-72
2023/07/21 12:04:12;;;;;;;1.70;1.60;;;24.10;73.90;;;;;;4909151;28;20550;-71
2023/07/21 12:06:39;;;;;;;2.20;1.73;;;24.10;73.70;;;;;;4913303;28;20482;-71
2023/07/21 12:09:06;;;;;;;2.70;1.47;;;24.10;75.80;;;;;;4910376;28;20856;-71
2023/07/21 12:11:36;;;;;;;2.27;2.07;;;24.10;78.10;;;;;;4892524;28;20475;-72
2023/07/21 12:14:03;;;;;;;1.70;1.60;;;24.10;79.10;;;;;;4927383;28;20470;-71
2023/07/21 12:16:32;;;;;;;1.53;1.30;;;24.00;80.50;;;;;;4926352;28;20459;-71
2023/07/21 12:18:58;;;;;;;3.17;1.70;;;23.90;81.50;;;;;;4927234;28;21153;-71
2023/07/21 12:21:25;;;;;;;1.77;1.67;;;23.80;81.20;;;;;;4909884;28;20470;-71
2023/07/21 12:23:51;;;;;;;2.20;1.57;;;23.50;81.40;;;;;;4927336;28;20530;-71
2023/07/21 12:26:18;;;;;;;2.77;2.17;;;23.60;81.80;;;;;;4912108;28;20459;-72
2023/07/21 12:28:44;;;;;;;6.03;2.30;;;23.50;82.30;;;;;;4910684;28;20856;-70
2023/07/21 12:31:11;;;;;;;1.90;1.80;;;23.40;84.00;;;;;;4910258;28;20482;-72
2023/07/21 12:33:39;;;;;;;1.63;1.53;;;23.30;87.20;;;;;;4927487;28;20988;-71
2023/07/21 12:36:05;;;;;;;1.93;1.83;;;22.90;90.00;;;;;;4913615;28;20475;-72
2023/07/21 12:38:31;;;;;;;2.30;1.97;;;22.60;90.70;;;;;;4926180;28;20514;-70
2023/07/21 12:40:57;;;;;;;1.77;1.67;;;22.50;91.90;;;;;;4927830;28;20468;-71
2023/07/21 12:43:23;;;;;;;4.30;2.20;;;22.40;92.90;;;;;;4926627;28;20561;-71
2023/07/21 12:45:48;;;;;;;1.70;1.60;;;22.40;93.50;;;;;;4911508;28;20216;-71
2023/07/21 12:48:14;;;;;;;2.23;2.03;;;22.30;94.60;;;;;;4927028;28;20248;-72
2023/07/21 12:50:40;;;;;;;1.90;1.80;;;22.20;94.80;;;;;;4911219;28;20346;-72
2023/07/21 12:53:06;;;;;;;4.93;2.53;;;22.40;94.80;;;;;;4925939;28;20234;-70
2023/07/21 12:55:32;;;;;;;3.20;2.90;;;22.40;95.70;;;;;;4893955;28;20922;-71
2023/07/21 12:57:58;;;;;;;2.70;2.50;;;22.40;95.80;;;;;;4912799;28;20219;-72